sensor_id;sensor_type;location;lat;lon;timestamp;P1;durP1;ratioP1;P2;durP2;ratioP2
10882;SDS011;5494;51.796;10.952;2023-04-24T00:02:18;2.30;;;2.00;;
10882;SDS011;5494;51.796;10.952;2023-04-24T00:04:46;2.33;;;1.73;;
10882;SDS011;5494;51.796;10.952;2023-04-24T00:07:15;1.77;;;1.50;;
10882;SDS011;5494;51.796;10.952;2023-04-24T00:09:43;1.87;;;1.40;;
10882;SDS011;5494;51.796;10.952;2023-04-24T00:12:11;2.37;;;1.70;;
10882;SDS011;5494;51.796;10.952;2023-04-24T00:14:40;2.20;;;1.30;;
10882;SDS011;5494;51.796;10.952;2023-04-24T00:17:08;1.93;;;1.37;;
10882;SDS011;5494;51.796;10.952;2023-04-24T00:19:36;1.60;;;1.50;;
10882;SDS011;5494;51.796;10.952;2023-04-24T00:22:05;4.97;;;1.57;;
10882;SDS011;5494;51.796;10.952;2023-04-24T00:24:33;1.43;;;1.30;;
10882;SDS011;5494;51.796;10.952;2023-04-24T00:27:00;1.50;;;1.37;;
10882;SDS011;5494;51.796;10.952;2023-04-24T00:29:29;1.70;;;1.50;;
10882;SDS011;5494;51.796;10.952;2023-04-24T00:31:58;1.70;;;1.60;;
10882;SDS011;5494;51.796;10.952;2023-04-24T00:34:26;3.67;;;1.47;;
10882;SDS011;5494;51.796;10.952;2023-04-24T00:36:54;2.40;;;1.50;;
10882;SDS011;5494;51.796;10.952;2023-04-24T00:39:22;1.30;;;1.20;;
10882;SDS011;5494;51.796;10.952;2023-04-24T00:41:50;2.17;;;1.30;;
10882;SDS011;5494;51.796;10.952;2023-04-24T00:44:18;1.37;;;1.10;;
10882;SDS011;5494;51.796;10.952;2023-04-24T00:46:46;1.30;;;1.20;;
10882;SDS011;5494;51.796;10.952;2023-04-24T00:49:19;3.00;;;1.73;;
10882;SDS011;5494;51.796;10.952;2023-04-24T00:51:48;1.30;;;1.20;;
10882;SDS011;5494;51.796;10.952;2023-04-24T00:54:17;1.53;;;1.20;;
10882;SDS011;5494;51.796;10.952;2023-04-24T00:56:45;1.30;;;1.20;;
10882;SDS011;5494;51.796;10.952;2023-04-24T00:59:15;1.73;;;1.20;;
10882;SDS011;5494;51.796;10.952;2023-04-24T01:01:44;1.40;;;1.07;;
10882;SDS011;5494;51.796;10.952;2023-04-24T01:04:12;2.63;;;1.40;;
10882;SDS011;5494;51.796;10.952;2023-04-24T01:06:44;1.50;;;1.27;;
10882;SDS011;5494;51.796;10.952;2023-04-24T01:09:12;1.20;;;1.10;;
10882;SDS011;5494;51.796;10.952;2023-04-24T01:11:42;1.07;;;1.00;;
10882;SDS011;5494;51.796;10.952;2023-04-24T01:14:10;1.20;;;1.10;;
10882;SDS011;5494;51.796;10.952;2023-04-24T01:16:40;2.10;;;1.30;;
10882;SDS011;5494;51.796;10.952;2023-04-24T01:19:08;1.63;;;1.30;;
10882;SDS011;5494;51.796;10.952;2023-04-24T01:21:38;2.43;;;1.10;;
10882;SDS011;5494;51.796;10.952;2023-04-24T01:24:10;4.73;;;1.20;;
10882;SDS011;5494;51.796;10.952;2023-04-24T01:26:38;1.50;;;1.27;;
10882;SDS011;5494;51.796;10.952;2023-04-24T01:29:06;2.10;;;1.23;;
10882;SDS011;5494;51.796;10.952;2023-04-24T01:31:36;1.13;;;1.03;;
10882;SDS011;5494;51.796;10.952;2023-04-24T01:34:05;1.73;;;1.00;;
10882;SDS011;5494;51.796;10.952;2023-04-24T01:36:34;1.93;;;1.33;;
10882;SDS011;5494;51.796;10.952;2023-04-24T01:39:03;1.07;;;0.97;;
10882;SDS011;5494;51.796;10.952;2023-04-24T01:41:32;2.00;;;1.77;;
10882;SDS011;5494;51.796;10.952;2023-04-24T01:44:01;3.87;;;1.50;;
10882;SDS011;5494;51.796;10.952;2023-04-24T01:46:29;2.27;;;1.30;;
10882;SDS011;5494;51.796;10.952;2023-04-24T01:48:58;1.47;;;1.20;;
10882;SDS011;5494;51.796;10.952;2023-04-24T01:51:27;1.40;;;1.23;;
10882;SDS011;5494;51.796;10.952;2023-04-24T01:53:56;1.40;;;0.97;;
10882;SDS011;5494;51.796;10.952;2023-04-24T01:56:24;4.13;;;1.20;;
10882;SDS011;5494;51.796;10.952;2023-04-24T01:58:57;3.13;;;1.33;;
10882;SDS011;5494;51.796;10.952;2023-04-24T02:01:27;1.67;;;1.30;;
10882;SDS011;5494;51.796;10.952;2023-04-24T02:04:01;2.20;;;1.20;;
10882;SDS011;5494;51.796;10.952;2023-04-24T02:06:30;1.90;;;1.23;;
10882;SDS011;5494;51.796;10.952;2023-04-24T02:08:59;1.63;;;1.20;;
10882;SDS011;5494;51.796;10.952;2023-04-24T02:11:27;1.77;;;0.90;;
10882;SDS011;5494;51.796;10.952;2023-04-24T02:13:57;1.20;;;1.10;;
10882;SDS011;5494;51.796;10.952;2023-04-24T02:16:25;1.23;;;0.90;;
10882;SDS011;5494;51.796;10.952;2023-04-24T02:18:56;1.23;;;0.87;;
10882;SDS011;5494;51.796;10.952;2023-04-24T02:21:24;2.00;;;1.00;;
10882;SDS011;5494;51.796;10.952;2023-04-24T02:23:53;1.83;;;0.93;;
10882;SDS011;5494;51.796;10.952;2023-04-24T02:26:21;2.53;;;1.20;;
10882;SDS011;5494;51.796;10.952;2023-04-24T02:28:50;1.00;;;0.90;;
10882;SDS011;5494;51.796;10.952;2023-04-24T02:31:21;0.87;;;0.87;;
10882;SDS011;5494;51.796;10.952;2023-04-24T02:33:49;1.30;;;1.00;;
10882;SDS011;5494;51.796;10.952;2023-04-24T02:36:17;2.37;;;1.07;;
10882;SDS011;5494;51.796;10.952;2023-04-24T02:38:45;0.70;;;0.70;;
10882;SDS011;5494;51.796;10.952;2023-04-24T02:41:13;1.00;;;0.90;;
10882;SDS011;5494;51.796;10.952;2023-04-24T02:43:41;0.80;;;0.80;;
10882;SDS011;5494;51.796;10.952;2023-04-24T02:46:09;1.77;;;0.93;;
10882;SDS011;5494;51.796;10.952;2023-04-24T02:48:39;1.37;;;0.70;;
10882;SDS011;5494;51.796;10.952;2023-04-24T02:51:07;3.23;;;0.70;;
10882;SDS011;5494;51.796;10.952;2023-04-24T02:53:35;1.43;;;0.90;;
10882;SDS011;5494;51.796;10.952;2023-04-24T02:56:03;1.07;;;0.57;;
10882;SDS011;5494;51.796;10.952;2023-04-24T02:58:31;0.93;;;0.83;;
10882;SDS011;5494;51.796;10.952;2023-04-24T03:01:00;1.00;;;0.90;;
10882;SDS011;5494;51.796;10.952;2023-04-24T03:03:28;2.67;;;0.60;;
10882;SDS011;5494;51.796;10.952;2023-04-24T03:05:58;0.87;;;0.80;;
10882;SDS011;5494;51.796;10.952;2023-04-24T03:08:26;1.00;;;0.70;;
10882;SDS011;5494;51.796;10.952;2023-04-24T03:10:54;1.83;;;1.00;;
10882;SDS011;5494;51.796;10.952;2023-04-24T03:13:22;1.33;;;0.90;;
10882;SDS011;5494;51.796;10.952;2023-04-24T03:15:50;2.97;;;0.83;;
10882;SDS011;5494;51.796;10.952;2023-04-24T03:18:18;1.80;;;0.80;;
10882;SDS011;5494;51.796;10.952;2023-04-24T03:20:47;3.67;;;1.00;;
10882;SDS011;5494;51.796;10.952;2023-04-24T03:23:17;0.80;;;0.80;;
10882;SDS011;5494;51.796;10.952;2023-04-24T03:25:46;1.07;;;0.90;;
10882;SDS011;5494;51.796;10.952;2023-04-24T03:28:15;2.60;;;0.90;;
10882;SDS011;5494;51.796;10.952;2023-04-24T03:30:48;1.53;;;0.90;;
10882;SDS011;5494;51.796;10.952;2023-04-24T03:33:20;1.30;;;0.80;;
10882;SDS011;5494;51.796;10.952;2023-04-24T03:35:57;1.03;;;1.00;;
10882;SDS011;5494;51.796;10.952;2023-04-24T03:38:27;2.70;;;0.90;;
10882;SDS011;5494;51.796;10.952;2023-04-24T03:41:18;0.90;;;0.70;;
10882;SDS011;5494;51.796;10.952;2023-04-24T03:43:52;1.00;;;0.97;;
10882;SDS011;5494;51.796;10.952;2023-04-24T03:46:20;1.13;;;1.00;;
10882;SDS011;5494;51.796;10.952;2023-04-24T03:48:53;0.80;;;0.80;;
10882;SDS011;5494;51.796;10.952;2023-04-24T03:51:26;3.27;;;1.00;;
10882;SDS011;5494;51.796;10.952;2023-04-24T03:54:04;0.90;;;0.90;;
10882;SDS011;5494;51.796;10.952;2023-04-24T03:56:35;1.33;;;1.00;;
10882;SDS011;5494;51.796;10.952;2023-04-24T03:59:03;1.90;;;1.00;;
10882;SDS011;5494;51.796;10.952;2023-04-24T04:01:31;1.57;;;1.00;;
10882;SDS011;5494;51.796;10.952;2023-04-24T04:04:09;2.13;;;1.10;;
10882;SDS011;5494;51.796;10.952;2023-04-24T04:06:38;1.53;;;1.10;;
10882;SDS011;5494;51.796;10.952;2023-04-24T04:09:07;3.33;;;1.20;;
10882;SDS011;5494;51.796;10.952;2023-04-24T04:11:35;1.37;;;1.20;;
10882;SDS011;5494;51.796;10.952;2023-04-24T04:14:04;2.30;;;1.80;;
10882;SDS011;5494;51.796;10.952;2023-04-24T04:16:36;2.80;;;1.30;;
10882;SDS011;5494;51.796;10.952;2023-04-24T04:19:06;2.63;;;1.40;;
10882;SDS011;5494;51.796;10.952;2023-04-24T04:21:34;1.50;;;1.40;;
10882;SDS011;5494;51.796;10.952;2023-04-24T04:24:17;2.07;;;1.40;;
10882;SDS011;5494;51.796;10.952;2023-04-24T04:26:46;1.50;;;1.40;;
10882;SDS011;5494;51.796;10.952;2023-04-24T04:29:29;1.27;;;1.00;;
10882;SDS011;5494;51.796;10.952;2023-04-24T04:32:00;3.03;;;1.53;;
10882;SDS011;5494;51.796;10.952;2023-04-24T04:34:32;3.60;;;1.37;;
10882;SDS011;5494;51.796;10.952;2023-04-24T04:37:01;2.00;;;1.30;;
10882;SDS011;5494;51.796;10.952;2023-04-24T04:39:41;1.67;;;1.53;;
10882;SDS011;5494;51.796;10.952;2023-04-24T04:42:18;2.17;;;1.70;;
10882;SDS011;5494;51.796;10.952;2023-04-24T04:44:46;3.80;;;1.57;;
10882;SDS011;5494;51.796;10.952;2023-04-24T04:47:18;2.23;;;1.37;;
10882;SDS011;5494;51.796;10.952;2023-04-24T04:49:50;2.10;;;1.60;;
10882;SDS011;5494;51.796;10.952;2023-04-24T04:52:22;1.37;;;1.27;;
10882;SDS011;5494;51.796;10.952;2023-04-24T04:54:58;2.50;;;1.20;;
10882;SDS011;5494;51.796;10.952;2023-04-24T04:57:45;1.73;;;1.40;;
10882;SDS011;5494;51.796;10.952;2023-04-24T05:00:13;1.37;;;1.23;;
10882;SDS011;5494;51.796;10.952;2023-04-24T05:02:49;4.20;;;1.40;;
10882;SDS011;5494;51.796;10.952;2023-04-24T05:05:17;2.60;;;1.33;;
10882;SDS011;5494;51.796;10.952;2023-04-24T05:07:46;1.87;;;1.40;;
10882;SDS011;5494;51.796;10.952;2023-04-24T05:10:16;1.40;;;1.20;;
10882;SDS011;5494;51.796;10.952;2023-04-24T05:12:44;1.87;;;1.30;;
10882;SDS011;5494;51.796;10.952;2023-04-24T05:15:12;1.97;;;1.77;;
10882;SDS011;5494;51.796;10.952;2023-04-24T05:17:40;2.57;;;1.67;;
10882;SDS011;5494;51.796;10.952;2023-04-24T05:20:09;1.60;;;1.50;;
10882;SDS011;5494;51.796;10.952;2023-04-24T05:22:38;3.00;;;1.70;;
10882;SDS011;5494;51.796;10.952;2023-04-24T05:25:06;2.03;;;1.70;;
10882;SDS011;5494;51.796;10.952;2023-04-24T05:27:48;1.63;;;1.53;;
10882;SDS011;5494;51.796;10.952;2023-04-24T05:30:17;2.00;;;1.67;;
10882;SDS011;5494;51.796;10.952;2023-04-24T05:32:45;1.87;;;1.77;;
10882;SDS011;5494;51.796;10.952;2023-04-24T05:35:13;4.63;;;1.47;;
10882;SDS011;5494;51.796;10.952;2023-04-24T05:37:41;2.33;;;1.90;;
10882;SDS011;5494;51.796;10.952;2023-04-24T05:40:11;2.67;;;1.43;;
10882;SDS011;5494;51.796;10.952;2023-04-24T05:42:39;2.27;;;1.20;;
10882;SDS011;5494;51.796;10.952;2023-04-24T05:45:09;1.50;;;1.40;;
10882;SDS011;5494;51.796;10.952;2023-04-24T05:47:42;3.90;;;1.40;;
10882;SDS011;5494;51.796;10.952;2023-04-24T05:50:11;1.30;;;1.20;;
10882;SDS011;5494;51.796;10.952;2023-04-24T05:52:39;2.47;;;1.30;;
10882;SDS011;5494;51.796;10.952;2023-04-24T05:55:20;1.37;;;1.27;;
10882;SDS011;5494;51.796;10.952;2023-04-24T05:57:49;2.57;;;1.47;;
10882;SDS011;5494;51.796;10.952;2023-04-24T06:00:18;1.57;;;1.10;;
10882;SDS011;5494;51.796;10.952;2023-04-24T06:02:57;2.37;;;1.83;;
10882;SDS011;5494;51.796;10.952;2023-04-24T06:05:26;1.73;;;1.30;;
10882;SDS011;5494;51.796;10.952;2023-04-24T06:07:54;4.23;;;1.53;;
10882;SDS011;5494;51.796;10.952;2023-04-24T06:10:26;1.93;;;1.40;;
10882;SDS011;5494;51.796;10.952;2023-04-24T06:12:54;1.27;;;1.17;;
10882;SDS011;5494;51.796;10.952;2023-04-24T06:15:29;4.13;;;1.30;;
10882;SDS011;5494;51.796;10.952;2023-04-24T06:18:06;2.97;;;1.33;;
10882;SDS011;5494;51.796;10.952;2023-04-24T06:20:37;2.20;;;1.10;;
10882;SDS011;5494;51.796;10.952;2023-04-24T06:23:08;1.93;;;1.30;;
10882;SDS011;5494;51.796;10.952;2023-04-24T06:25:36;2.23;;;1.20;;
10882;SDS011;5494;51.796;10.952;2023-04-24T06:28:04;3.23;;;1.23;;
10882;SDS011;5494;51.796;10.952;2023-04-24T06:30:34;2.20;;;1.40;;
10882;SDS011;5494;51.796;10.952;2023-04-24T06:33:02;3.27;;;1.20;;
10882;SDS011;5494;51.796;10.952;2023-04-24T06:35:45;2.10;;;1.27;;
10882;SDS011;5494;51.796;10.952;2023-04-24T06:38:13;3.33;;;1.10;;
10882;SDS011;5494;51.796;10.952;2023-04-24T06:40:42;3.07;;;1.10;;
10882;SDS011;5494;51.796;10.952;2023-04-24T06:43:10;7.07;;;2.30;;
10882;SDS011;5494;51.796;10.952;2023-04-24T06:45:40;2.57;;;1.30;;
10882;SDS011;5494;51.796;10.952;2023-04-24T06:48:09;2.57;;;1.10;;
10882;SDS011;5494;51.796;10.952;2023-04-24T06:50:37;1.47;;;1.00;;
10882;SDS011;5494;51.796;10.952;2023-04-24T06:53:05;4.57;;;1.20;;
10882;SDS011;5494;51.796;10.952;2023-04-24T06:55:35;2.57;;;1.10;;
10882;SDS011;5494;51.796;10.952;2023-04-24T06:58:03;1.93;;;1.30;;
10882;SDS011;5494;51.796;10.952;2023-04-24T07:00:32;1.97;;;1.10;;
10882;SDS011;5494;51.796;10.952;2023-04-24T07:03:02;1.93;;;1.13;;
10882;SDS011;5494;51.796;10.952;2023-04-24T07:05:31;2.13;;;1.27;;
10882;SDS011;5494;51.796;10.952;2023-04-24T07:08:01;1.23;;;0.90;;
10882;SDS011;5494;51.796;10.952;2023-04-24T07:10:30;1.10;;;1.00;;
10882;SDS011;5494;51.796;10.952;2023-04-24T07:13:00;3.10;;;1.20;;
10882;SDS011;5494;51.796;10.952;2023-04-24T07:15:28;1.40;;;1.20;;
10882;SDS011;5494;51.796;10.952;2023-04-24T07:17:56;1.03;;;0.80;;
10882;SDS011;5494;51.796;10.952;2023-04-24T07:20:26;1.13;;;1.00;;
10882;SDS011;5494;51.796;10.952;2023-04-24T07:22:54;2.53;;;0.80;;
10882;SDS011;5494;51.796;10.952;2023-04-24T07:25:21;1.60;;;0.80;;
10882;SDS011;5494;51.796;10.952;2023-04-24T07:27:49;1.00;;;0.90;;
10882;SDS011;5494;51.796;10.952;2023-04-24T07:30:18;1.93;;;0.80;;
10882;SDS011;5494;51.796;10.952;2023-04-24T07:32:46;1.63;;;0.70;;
10882;SDS011;5494;51.796;10.952;2023-04-24T07:35:14;1.97;;;1.00;;
10882;SDS011;5494;51.796;10.952;2023-04-24T07:37:43;2.10;;;0.73;;
10882;SDS011;5494;51.796;10.952;2023-04-24T07:40:12;1.97;;;1.00;;
10882;SDS011;5494;51.796;10.952;2023-04-24T07:42:40;0.67;;;0.60;;
10882;SDS011;5494;51.796;10.952;2023-04-24T07:45:09;0.87;;;0.70;;
10882;SDS011;5494;51.796;10.952;2023-04-24T07:47:37;1.40;;;0.70;;
10882;SDS011;5494;51.796;10.952;2023-04-24T07:50:06;1.90;;;0.67;;
10882;SDS011;5494;51.796;10.952;2023-04-24T07:52:34;0.80;;;0.70;;
10882;SDS011;5494;51.796;10.952;2023-04-24T07:55:04;1.40;;;0.80;;
10882;SDS011;5494;51.796;10.952;2023-04-24T07:57:33;2.17;;;0.93;;
10882;SDS011;5494;51.796;10.952;2023-04-24T08:00:02;1.80;;;0.60;;
10882;SDS011;5494;51.796;10.952;2023-04-24T08:02:36;0.73;;;0.73;;
10882;SDS011;5494;51.796;10.952;2023-04-24T08:05:06;1.33;;;0.80;;
10882;SDS011;5494;51.796;10.952;2023-04-24T08:07:35;0.57;;;0.50;;
10882;SDS011;5494;51.796;10.952;2023-04-24T08:10:05;1.67;;;0.80;;
10882;SDS011;5494;51.796;10.952;2023-04-24T08:12:34;2.00;;;1.03;;
10882;SDS011;5494;51.796;10.952;2023-04-24T08:15:03;2.40;;;1.07;;
10882;SDS011;5494;51.796;10.952;2023-04-24T08:17:33;1.27;;;0.77;;
10882;SDS011;5494;51.796;10.952;2023-04-24T08:20:01;1.13;;;1.03;;
10882;SDS011;5494;51.796;10.952;2023-04-24T08:22:31;1.67;;;0.70;;
10882;SDS011;5494;51.796;10.952;2023-04-24T08:25:00;1.40;;;0.77;;
10882;SDS011;5494;51.796;10.952;2023-04-24T08:27:29;1.67;;;1.10;;
10882;SDS011;5494;51.796;10.952;2023-04-24T08:29:57;0.80;;;0.60;;
10882;SDS011;5494;51.796;10.952;2023-04-24T08:32:26;6.40;;;1.30;;
10882;SDS011;5494;51.796;10.952;2023-04-24T08:34:55;0.70;;;0.70;;
10882;SDS011;5494;51.796;10.952;2023-04-24T08:37:23;2.80;;;1.10;;
10882;SDS011;5494;51.796;10.952;2023-04-24T08:39:54;1.10;;;1.00;;
10882;SDS011;5494;51.796;10.952;2023-04-24T08:42:22;1.97;;;1.40;;
10882;SDS011;5494;51.796;10.952;2023-04-24T08:44:51;1.13;;;1.00;;
10882;SDS011;5494;51.796;10.952;2023-04-24T08:47:19;2.47;;;0.90;;
10882;SDS011;5494;51.796;10.952;2023-04-24T08:49:50;1.87;;;1.10;;
10882;SDS011;5494;51.796;10.952;2023-04-24T08:52:20;4.80;;;0.90;;
10882;SDS011;5494;51.796;10.952;2023-04-24T08:54:48;2.63;;;0.90;;
10882;SDS011;5494;51.796;10.952;2023-04-24T08:57:17;0.80;;;0.77;;
10882;SDS011;5494;51.796;10.952;2023-04-24T08:59:45;1.30;;;1.10;;
10882;SDS011;5494;51.796;10.952;2023-04-24T09:02:15;1.83;;;0.90;;
10882;SDS011;5494;51.796;10.952;2023-04-24T09:04:45;2.00;;;1.10;;
10882;SDS011;5494;51.796;10.952;2023-04-24T09:07:14;1.00;;;0.90;;
10882;SDS011;5494;51.796;10.952;2023-04-24T09:09:46;2.47;;;1.33;;
10882;SDS011;5494;51.796;10.952;2023-04-24T09:12:18;2.80;;;1.07;;
10882;SDS011;5494;51.796;10.952;2023-04-24T09:14:46;1.57;;;1.40;;
10882;SDS011;5494;51.796;10.952;2023-04-24T09:17:18;3.30;;;1.00;;
10882;SDS011;5494;51.796;10.952;2023-04-24T09:19:48;1.20;;;1.10;;
10882;SDS011;5494;51.796;10.952;2023-04-24T09:22:17;4.67;;;1.20;;
10882;SDS011;5494;51.796;10.952;2023-04-24T09:24:45;2.87;;;1.10;;
10882;SDS011;5494;51.796;10.952;2023-04-24T09:27:15;1.87;;;1.20;;
10882;SDS011;5494;51.796;10.952;2023-04-24T09:29:53;1.50;;;1.20;;
10882;SDS011;5494;51.796;10.952;2023-04-24T09:32:23;1.80;;;1.20;;
10882;SDS011;5494;51.796;10.952;2023-04-24T09:35:05;1.20;;;1.10;;
10882;SDS011;5494;51.796;10.952;2023-04-24T09:37:39;3.13;;;1.20;;
10882;SDS011;5494;51.796;10.952;2023-04-24T09:40:09;1.30;;;1.00;;
10882;SDS011;5494;51.796;10.952;2023-04-24T09:42:43;2.87;;;1.60;;
10882;SDS011;5494;51.796;10.952;2023-04-24T09:45:12;1.57;;;1.20;;
10882;SDS011;5494;51.796;10.952;2023-04-24T09:47:42;2.07;;;1.30;;
10882;SDS011;5494;51.796;10.952;2023-04-24T09:50:12;2.30;;;1.47;;
10882;SDS011;5494;51.796;10.952;2023-04-24T09:52:43;1.87;;;1.33;;
10882;SDS011;5494;51.796;10.952;2023-04-24T09:55:14;1.30;;;1.20;;
10882;SDS011;5494;51.796;10.952;2023-04-24T09:57:49;2.10;;;1.40;;
10882;SDS011;5494;51.796;10.952;2023-04-24T10:00:21;3.03;;;1.83;;
10882;SDS011;5494;51.796;10.952;2023-04-24T10:02:55;3.00;;;1.50;;
10882;SDS011;5494;51.796;10.952;2023-04-24T10:05:29;5.37;;;1.43;;
10882;SDS011;5494;51.796;10.952;2023-04-24T10:08:03;2.70;;;2.03;;
10882;SDS011;5494;51.796;10.952;2023-04-24T10:10:33;2.30;;;1.27;;
10882;SDS011;5494;51.796;10.952;2023-04-24T10:13:05;1.63;;;1.10;;
10882;SDS011;5494;51.796;10.952;2023-04-24T10:15:36;1.50;;;1.33;;
10882;SDS011;5494;51.796;10.952;2023-04-24T10:18:06;2.03;;;1.70;;
10882;SDS011;5494;51.796;10.952;2023-04-24T10:20:38;2.10;;;1.70;;
10882;SDS011;5494;51.796;10.952;2023-04-24T10:23:07;1.90;;;1.50;;
10882;SDS011;5494;51.796;10.952;2023-04-24T10:25:35;2.20;;;1.50;;
10882;SDS011;5494;51.796;10.952;2023-04-24T10:28:04;2.10;;;1.90;;
10882;SDS011;5494;51.796;10.952;2023-04-24T10:30:36;2.07;;;1.87;;
10882;SDS011;5494;51.796;10.952;2023-04-24T10:33:06;2.30;;;1.97;;
10882;SDS011;5494;51.796;10.952;2023-04-24T10:35:37;2.07;;;1.77;;
10882;SDS011;5494;51.796;10.952;2023-04-24T10:38:12;2.63;;;1.70;;
10882;SDS011;5494;51.796;10.952;2023-04-24T10:40:43;2.53;;;1.80;;
10882;SDS011;5494;51.796;10.952;2023-04-24T10:43:13;2.57;;;1.53;;
10882;SDS011;5494;51.796;10.952;2023-04-24T10:46:00;2.20;;;1.80;;
10882;SDS011;5494;51.796;10.952;2023-04-24T10:48:31;2.13;;;1.40;;
10882;SDS011;5494;51.796;10.952;2023-04-24T10:50:59;1.70;;;1.60;;
10882;SDS011;5494;51.796;10.952;2023-04-24T10:53:28;2.23;;;1.53;;
10882;SDS011;5494;51.796;10.952;2023-04-24T10:55:58;1.97;;;1.63;;
10882;SDS011;5494;51.796;10.952;2023-04-24T10:58:37;2.97;;;1.93;;
10882;SDS011;5494;51.796;10.952;2023-04-24T11:01:22;4.90;;;1.83;;
10882;SDS011;5494;51.796;10.952;2023-04-24T11:03:55;4.23;;;1.40;;
10882;SDS011;5494;51.796;10.952;2023-04-24T11:06:29;4.33;;;2.13;;
10882;SDS011;5494;51.796;10.952;2023-04-24T11:09:01;3.03;;;1.50;;
10882;SDS011;5494;51.796;10.952;2023-04-24T11:11:32;4.50;;;1.50;;
10882;SDS011;5494;51.796;10.952;2023-04-24T11:14:02;2.60;;;1.40;;
10882;SDS011;5494;51.796;10.952;2023-04-24T11:16:34;1.73;;;1.17;;
10882;SDS011;5494;51.796;10.952;2023-04-24T11:19:21;2.93;;;1.40;;
10882;SDS011;5494;51.796;10.952;2023-04-24T11:21:54;1.57;;;1.30;;
10882;SDS011;5494;51.796;10.952;2023-04-24T11:24:28;1.73;;;1.40;;
10882;SDS011;5494;51.796;10.952;2023-04-24T11:27:14;1.27;;;1.17;;
10882;SDS011;5494;51.796;10.952;2023-04-24T11:29:46;2.47;;;1.50;;
10882;SDS011;5494;51.796;10.952;2023-04-24T11:32:23;2.03;;;1.30;;
10882;SDS011;5494;51.796;10.952;2023-04-24T11:34:56;3.13;;;1.47;;
10882;SDS011;5494;51.796;10.952;2023-04-24T11:37:27;6.17;;;2.03;;
10882;SDS011;5494;51.796;10.952;2023-04-24T11:40:01;1.87;;;1.50;;
10882;SDS011;5494;51.796;10.952;2023-04-24T11:42:33;5.93;;;1.97;;
10882;SDS011;5494;51.796;10.952;2023-04-24T11:45:02;2.07;;;1.40;;
10882;SDS011;5494;51.796;10.952;2023-04-24T11:47:36;1.60;;;1.50;;
10882;SDS011;5494;51.796;10.952;2023-04-24T11:50:08;2.70;;;1.43;;
10882;SDS011;5494;51.796;10.952;2023-04-24T11:52:40;1.87;;;1.50;;
10882;SDS011;5494;51.796;10.952;2023-04-24T11:55:22;1.90;;;1.40;;
10882;SDS011;5494;51.796;10.952;2023-04-24T11:57:54;1.50;;;1.40;;
10882;SDS011;5494;51.796;10.952;2023-04-24T12:00:27;2.37;;;1.60;;
10882;SDS011;5494;51.796;10.952;2023-04-24T12:03:04;1.20;;;1.10;;
10882;SDS011;5494;51.796;10.952;2023-04-24T12:05:39;3.77;;;1.53;;
10882;SDS011;5494;51.796;10.952;2023-04-24T12:08:08;2.10;;;1.63;;
10882;SDS011;5494;51.796;10.952;2023-04-24T12:10:35;1.90;;;1.80;;
10882;SDS011;5494;51.796;10.952;2023-04-24T12:13:03;2.47;;;1.80;;
10882;SDS011;5494;51.796;10.952;2023-04-24T12:15:32;2.40;;;2.00;;
10882;SDS011;5494;51.796;10.952;2023-04-24T12:18:00;2.63;;;1.47;;
10882;SDS011;5494;51.796;10.952;2023-04-24T12:20:28;1.63;;;1.43;;
10882;SDS011;5494;51.796;10.952;2023-04-24T12:23:00;2.43;;;1.20;;
10882;SDS011;5494;51.796;10.952;2023-04-24T12:25:29;3.37;;;1.20;;
10882;SDS011;5494;51.796;10.952;2023-04-24T12:28:08;2.40;;;1.40;;
10882;SDS011;5494;51.796;10.952;2023-04-24T12:30:39;2.30;;;1.20;;
10882;SDS011;5494;51.796;10.952;2023-04-24T12:33:11;1.23;;;1.10;;
10882;SDS011;5494;51.796;10.952;2023-04-24T12:35:39;1.70;;;1.47;;
10882;SDS011;5494;51.796;10.952;2023-04-24T12:38:10;1.50;;;1.33;;
10882;SDS011;5494;51.796;10.952;2023-04-24T12:40:40;1.73;;;1.20;;
10882;SDS011;5494;51.796;10.952;2023-04-24T12:43:13;2.17;;;1.30;;
10882;SDS011;5494;51.796;10.952;2023-04-24T12:45:42;3.57;;;1.10;;
10882;SDS011;5494;51.796;10.952;2023-04-24T12:48:11;2.30;;;1.20;;
10882;SDS011;5494;51.796;10.952;2023-04-24T12:50:40;1.70;;;1.47;;
10882;SDS011;5494;51.796;10.952;2023-04-24T12:53:13;2.20;;;1.50;;
10882;SDS011;5494;51.796;10.952;2023-04-24T12:55:42;1.93;;;1.23;;
10882;SDS011;5494;51.796;10.952;2023-04-24T12:58:11;2.20;;;1.33;;
10882;SDS011;5494;51.796;10.952;2023-04-24T13:00:40;2.70;;;1.60;;
10882;SDS011;5494;51.796;10.952;2023-04-24T13:03:09;2.57;;;1.37;;
10882;SDS011;5494;51.796;10.952;2023-04-24T13:05:38;1.10;;;0.97;;
10882;SDS011;5494;51.796;10.952;2023-04-24T13:08:06;2.60;;;1.20;;
10882;SDS011;5494;51.796;10.952;2023-04-24T13:10:35;0.97;;;0.90;;
10882;SDS011;5494;51.796;10.952;2023-04-24T13:13:03;1.60;;;0.90;;
10882;SDS011;5494;51.796;10.952;2023-04-24T13:15:31;0.70;;;0.70;;
10882;SDS011;5494;51.796;10.952;2023-04-24T13:18:02;1.43;;;1.00;;
10882;SDS011;5494;51.796;10.952;2023-04-24T13:20:30;0.77;;;0.70;;
10882;SDS011;5494;51.796;10.952;2023-04-24T13:22:58;0.77;;;0.70;;
10882;SDS011;5494;51.796;10.952;2023-04-24T13:25:26;1.90;;;0.70;;
10882;SDS011;5494;51.796;10.952;2023-04-24T13:27:57;3.83;;;0.63;;
10882;SDS011;5494;51.796;10.952;2023-04-24T13:30:25;1.17;;;0.70;;
10882;SDS011;5494;51.796;10.952;2023-04-24T13:32:53;1.90;;;0.80;;
10882;SDS011;5494;51.796;10.952;2023-04-24T13:35:22;0.80;;;0.73;;
10882;SDS011;5494;51.796;10.952;2023-04-24T13:37:50;1.90;;;0.80;;
10882;SDS011;5494;51.796;10.952;2023-04-24T13:40:18;2.00;;;0.73;;
10882;SDS011;5494;51.796;10.952;2023-04-24T13:42:46;1.57;;;0.70;;
10882;SDS011;5494;51.796;10.952;2023-04-24T13:45:16;1.53;;;0.70;;
10882;SDS011;5494;51.796;10.952;2023-04-24T13:47:50;0.77;;;0.60;;
10882;SDS011;5494;51.796;10.952;2023-04-24T13:50:20;0.77;;;0.50;;
10882;SDS011;5494;51.796;10.952;2023-04-24T13:52:48;2.40;;;0.70;;
10882;SDS011;5494;51.796;10.952;2023-04-24T13:55:16;1.00;;;0.60;;
10882;SDS011;5494;51.796;10.952;2023-04-24T13:57:44;1.53;;;0.70;;
10882;SDS011;5494;51.796;10.952;2023-04-24T14:00:13;1.73;;;0.50;;
10882;SDS011;5494;51.796;10.952;2023-04-24T14:02:44;0.97;;;0.77;;
10882;SDS011;5494;51.796;10.952;2023-04-24T14:05:12;0.60;;;0.50;;
10882;SDS011;5494;51.796;10.952;2023-04-24T14:07:41;1.53;;;0.50;;
10882;SDS011;5494;51.796;10.952;2023-04-24T14:10:09;1.30;;;0.40;;
10882;SDS011;5494;51.796;10.952;2023-04-24T14:12:38;3.87;;;0.90;;
10882;SDS011;5494;51.796;10.952;2023-04-24T14:15:06;2.17;;;0.80;;
10882;SDS011;5494;51.796;10.952;2023-04-24T14:17:38;4.47;;;0.60;;
10882;SDS011;5494;51.796;10.952;2023-04-24T14:20:06;2.73;;;0.37;;
10882;SDS011;5494;51.796;10.952;2023-04-24T14:22:35;0.40;;;0.30;;
10882;SDS011;5494;51.796;10.952;2023-04-24T14:25:04;2.73;;;0.40;;
10882;SDS011;5494;51.796;10.952;2023-04-24T14:27:33;1.77;;;0.37;;
10882;SDS011;5494;51.796;10.952;2023-04-24T14:30:01;0.70;;;0.70;;
10882;SDS011;5494;51.796;10.952;2023-04-24T14:32:30;1.23;;;0.43;;
10882;SDS011;5494;51.796;10.952;2023-04-24T14:34:59;2.00;;;0.40;;
10882;SDS011;5494;51.796;10.952;2023-04-24T14:37:27;0.40;;;0.40;;
10882;SDS011;5494;51.796;10.952;2023-04-24T14:39:55;0.77;;;0.40;;
10882;SDS011;5494;51.796;10.952;2023-04-24T14:42:43;2.83;;;0.60;;
10882;SDS011;5494;51.796;10.952;2023-04-24T14:45:11;0.67;;;0.50;;
10882;SDS011;5494;51.796;10.952;2023-04-24T14:47:39;0.70;;;0.43;;
10882;SDS011;5494;51.796;10.952;2023-04-24T14:50:09;2.23;;;0.47;;
10882;SDS011;5494;51.796;10.952;2023-04-24T14:52:38;0.67;;;0.50;;
10882;SDS011;5494;51.796;10.952;2023-04-24T14:55:07;0.20;;;0.20;;
10882;SDS011;5494;51.796;10.952;2023-04-24T14:57:35;0.50;;;0.40;;
10882;SDS011;5494;51.796;10.952;2023-04-24T15:00:04;1.40;;;0.50;;
10882;SDS011;5494;51.796;10.952;2023-04-24T15:02:36;1.43;;;0.37;;
10882;SDS011;5494;51.796;10.952;2023-04-24T15:05:09;0.30;;;0.30;;
10882;SDS011;5494;51.796;10.952;2023-04-24T15:07:38;0.40;;;0.40;;